sensor_id;sensor_type;location;lat;lon;timestamp;P1;durP1;ratioP1;P2;durP2;ratioP2
45296;SDS011;31040;51.622;10.420;2023-08-01T00:00:46;4.82;;;1.80;;
45296;SDS011;31040;51.622;10.420;2023-08-01T00:03:14;2.28;;;1.40;;
45296;SDS011;31040;51.622;10.420;2023-08-01T00:05:41;1.77;;;1.45;;
45296;SDS011;31040;51.622;10.420;2023-08-01T00:08:12;1.85;;;1.70;;
45296;SDS011;31040;51.622;10.420;2023-08-01T00:10:39;3.45;;;1.80;;
45296;SDS011;31040;51.622;10.420;2023-08-01T00:13:07;1.55;;;1.40;;
45296;SDS011;31040;51.622;10.420;2023-08-01T00:15:35;2.08;;;1.45;;
45296;SDS011;31040;51.622;10.420;2023-08-01T00:18:03;2.42;;;1.50;;
45296;SDS011;31040;51.622;10.420;2023-08-01T00:20:30;2.60;;;1.80;;
45296;SDS011;31040;51.622;10.420;2023-08-01T00:22:58;2.50;;;1.52;;
45296;SDS011;31040;51.622;10.420;2023-08-01T00:25:25;1.95;;;1.63;;
45296;SDS011;31040;51.622;10.420;2023-08-01T00:27:52;2.40;;;1.63;;
45296;SDS011;31040;51.622;10.420;2023-08-01T00:30:20;2.13;;;1.65;;
45296;SDS011;31040;51.622;10.420;2023-08-01T00:32:47;1.88;;;1.50;;
45296;SDS011;31040;51.622;10.420;2023-08-01T00:35:15;1.60;;;1.50;;
45296;SDS011;31040;51.622;10.420;2023-08-01T00:37:43;1.92;;;1.73;;
45296;SDS011;31040;51.622;10.420;2023-08-01T00:40:10;2.55;;;1.85;;
45296;SDS011;31040;51.622;10.420;2023-08-01T00:42:38;2.75;;;2.00;;
45296;SDS011;31040;51.622;10.420;2023-08-01T00:45:06;1.92;;;1.50;;
45296;SDS011;31040;51.622;10.420;2023-08-01T00:47:34;2.72;;;1.80;;
45296;SDS011;31040;51.622;10.420;2023-08-01T00:50:01;2.92;;;1.85;;
45296;SDS011;31040;51.622;10.420;2023-08-01T00:52:29;1.83;;;1.45;;
45296;SDS011;31040;51.622;10.420;2023-08-01T00:54:56;1.98;;;1.70;;
45296;SDS011;31040;51.622;10.420;2023-08-01T00:57:24;1.75;;;1.60;;
45296;SDS011;31040;51.622;10.420;2023-08-01T00:59:51;2.08;;;1.80;;
45296;SDS011;31040;51.622;10.420;2023-08-01T01:02:18;2.75;;;2.10;;
45296;SDS011;31040;51.622;10.420;2023-08-01T01:04:46;1.70;;;1.55;;
45296;SDS011;31040;51.622;10.420;2023-08-01T01:07:14;1.95;;;1.50;;
45296;SDS011;31040;51.622;10.420;2023-08-01T01:09:43;2.35;;;1.67;;
45296;SDS011;31040;51.622;10.420;2023-08-01T01:12:11;2.30;;;1.63;;
45296;SDS011;31040;51.622;10.420;2023-08-01T01:14:38;2.13;;;1.67;;
45296;SDS011;31040;51.622;10.420;2023-08-01T01:17:06;3.05;;;1.85;;
45296;SDS011;31040;51.622;10.420;2023-08-01T01:19:33;2.50;;;1.63;;
45296;SDS011;31040;51.622;10.420;2023-08-01T01:22:02;1.90;;;1.42;;
45296;SDS011;31040;51.622;10.420;2023-08-01T01:24:31;2.17;;;1.73;;
45296;SDS011;31040;51.622;10.420;2023-08-01T01:26:59;3.15;;;1.73;;
45296;SDS011;31040;51.622;10.420;2023-08-01T01:29:27;2.30;;;1.70;;
45296;SDS011;31040;51.622;10.420;2023-08-01T01:31:56;2.08;;;1.77;;
45296;SDS011;31040;51.622;10.420;2023-08-01T01:34:24;2.92;;;1.90;;
45296;SDS011;31040;51.622;10.420;2023-08-01T01:36:52;3.03;;;1.92;;
45296;SDS011;31040;51.622;10.420;2023-08-01T01:39:19;1.65;;;1.48;;
45296;SDS011;31040;51.622;10.420;2023-08-01T01:41:46;1.92;;;1.58;;
45296;SDS011;31040;51.622;10.420;2023-08-01T01:44:14;1.38;;;1.27;;
45296;SDS011;31040;51.622;10.420;2023-08-01T01:46:41;1.42;;;1.30;;
45296;SDS011;31040;51.622;10.420;2023-08-01T01:49:09;1.83;;;1.65;;
45296;SDS011;31040;51.622;10.420;2023-08-01T01:51:36;2.15;;;1.52;;
45296;SDS011;31040;51.622;10.420;2023-08-01T01:54:04;2.08;;;1.15;;
45296;SDS011;31040;51.622;10.420;2023-08-01T01:56:31;1.42;;;1.30;;
45296;SDS011;31040;51.622;10.420;2023-08-01T01:59:00;2.00;;;1.33;;
45296;SDS011;31040;51.622;10.420;2023-08-01T02:01:27;1.90;;;1.40;;
45296;SDS011;31040;51.622;10.420;2023-08-01T02:03:55;2.05;;;1.73;;
45296;SDS011;31040;51.622;10.420;2023-08-01T02:06:22;1.60;;;1.50;;
45296;SDS011;31040;51.622;10.420;2023-08-01T02:08:49;1.98;;;1.48;;
45296;SDS011;31040;51.622;10.420;2023-08-01T02:11:17;1.77;;;1.48;;
45296;SDS011;31040;51.622;10.420;2023-08-01T02:13:44;1.95;;;1.38;;
45296;SDS011;31040;51.622;10.420;2023-08-01T02:16:11;2.08;;;1.60;;
45296;SDS011;31040;51.622;10.420;2023-08-01T02:18:39;1.40;;;1.20;;
45296;SDS011;31040;51.622;10.420;2023-08-01T02:21:06;1.70;;;1.30;;
45296;SDS011;31040;51.622;10.420;2023-08-01T02:23:34;3.03;;;1.88;;
45296;SDS011;31040;51.622;10.420;2023-08-01T02:26:03;2.47;;;1.30;;
45296;SDS011;31040;51.622;10.420;2023-08-01T02:28:31;2.17;;;1.40;;
45296;SDS011;31040;51.622;10.420;2023-08-01T02:30:58;2.00;;;1.60;;
45296;SDS011;31040;51.622;10.420;2023-08-01T02:33:26;1.50;;;1.27;;
45296;SDS011;31040;51.622;10.420;2023-08-01T02:35:53;1.77;;;1.42;;
45296;SDS011;31040;51.622;10.420;2023-08-01T02:38:21;2.53;;;1.20;;
45296;SDS011;31040;51.622;10.420;2023-08-01T02:40:48;3.13;;;1.13;;
45296;SDS011;31040;51.622;10.420;2023-08-01T02:43:15;2.67;;;1.50;;
45296;SDS011;31040;51.622;10.420;2023-08-01T02:45:43;1.88;;;1.30;;
45296;SDS011;31040;51.622;10.420;2023-08-01T02:48:11;2.33;;;1.30;;
45296;SDS011;31040;51.622;10.420;2023-08-01T02:50:38;1.58;;;1.30;;
45296;SDS011;31040;51.622;10.420;2023-08-01T02:53:06;2.22;;;1.30;;
45296;SDS011;31040;51.622;10.420;2023-08-01T02:55:34;1.92;;;1.33;;
45296;SDS011;31040;51.622;10.420;2023-08-01T02:58:01;1.90;;;1.20;;
45296;SDS011;31040;51.622;10.420;2023-08-01T03:00:28;1.90;;;1.23;;
45296;SDS011;31040;51.622;10.420;2023-08-01T03:02:57;4.75;;;1.50;;
45296;SDS011;31040;51.622;10.420;2023-08-01T03:05:25;1.88;;;1.05;;
45296;SDS011;31040;51.622;10.420;2023-08-01T03:07:52;2.67;;;1.33;;
45296;SDS011;31040;51.622;10.420;2023-08-01T03:10:20;2.13;;;1.50;;
45296;SDS011;31040;51.622;10.420;2023-08-01T03:13:02;2.67;;;1.58;;
45296;SDS011;31040;51.622;10.420;2023-08-01T03:15:29;3.10;;;1.30;;
45296;SDS011;31040;51.622;10.420;2023-08-01T03:17:58;4.63;;;1.30;;
45296;SDS011;31040;51.622;10.420;2023-08-01T03:20:25;2.83;;;1.38;;
45296;SDS011;31040;51.622;10.420;2023-08-01T03:22:53;1.65;;;1.48;;
45296;SDS011;31040;51.622;10.420;2023-08-01T03:25:21;1.70;;;1.02;;
45296;SDS011;31040;51.622;10.420;2023-08-01T03:27:48;2.13;;;1.30;;
45296;SDS011;31040;51.622;10.420;2023-08-01T03:30:15;2.92;;;1.25;;
45296;SDS011;31040;51.622;10.420;2023-08-01T03:32:43;2.15;;;1.70;;
45296;SDS011;31040;51.622;10.420;2023-08-01T03:35:10;2.13;;;1.17;;
45296;SDS011;31040;51.622;10.420;2023-08-01T03:37:38;2.00;;;1.40;;
45296;SDS011;31040;51.622;10.420;2023-08-01T03:40:05;2.60;;;1.38;;
45296;SDS011;31040;51.622;10.420;2023-08-01T03:42:37;1.23;;;1.00;;
45296;SDS011;31040;51.622;10.420;2023-08-01T03:45:04;2.63;;;1.00;;
45296;SDS011;31040;51.622;10.420;2023-08-01T03:47:32;1.95;;;1.15;;
45296;SDS011;31040;51.622;10.420;2023-08-01T03:50:00;2.13;;;0.95;;
45296;SDS011;31040;51.622;10.420;2023-08-01T03:52:27;2.65;;;0.95;;
45296;SDS011;31040;51.622;10.420;2023-08-01T03:54:55;1.35;;;1.23;;
45296;SDS011;31040;51.622;10.420;2023-08-01T03:57:22;2.67;;;0.82;;
45296;SDS011;31040;51.622;10.420;2023-08-01T03:59:50;1.35;;;0.80;;
45296;SDS011;31040;51.622;10.420;2023-08-01T04:02:17;1.77;;;0.80;;
45296;SDS011;31040;51.622;10.420;2023-08-01T04:04:45;1.80;;;0.70;;
45296;SDS011;31040;51.622;10.420;2023-08-01T04:07:12;1.13;;;0.80;;
45296;SDS011;31040;51.622;10.420;2023-08-01T04:09:40;1.90;;;0.60;;
45296;SDS011;31040;51.622;10.420;2023-08-01T04:12:07;0.90;;;0.80;;
45296;SDS011;31040;51.622;10.420;2023-08-01T04:14:35;0.75;;;0.60;;
45296;SDS011;31040;51.622;10.420;2023-08-01T04:17:02;0.85;;;0.70;;
45296;SDS011;31040;51.622;10.420;2023-08-01T04:19:30;1.70;;;1.00;;
45296;SDS011;31040;51.622;10.420;2023-08-01T04:21:57;2.15;;;0.93;;
45296;SDS011;31040;51.622;10.420;2023-08-01T04:24:24;0.60;;;0.60;;
45296;SDS011;31040;51.622;10.420;2023-08-01T04:26:54;2.47;;;0.70;;
45296;SDS011;31040;51.622;10.420;2023-08-01T04:29:21;0.77;;;0.50;;
45296;SDS011;31040;51.622;10.420;2023-08-01T04:31:48;0.80;;;0.57;;
45296;SDS011;31040;51.622;10.420;2023-08-01T04:34:16;0.50;;;0.50;;
45296;SDS011;31040;51.622;10.420;2023-08-01T04:36:43;1.10;;;0.40;;
45296;SDS011;31040;51.622;10.420;2023-08-01T04:39:11;0.50;;;0.50;;
45296;SDS011;31040;51.622;10.420;2023-08-01T04:41:38;0.77;;;0.40;;
45296;SDS011;31040;51.622;10.420;2023-08-01T04:44:05;0.95;;;0.50;;
45296;SDS011;31040;51.622;10.420;2023-08-01T04:46:33;1.52;;;0.70;;
45296;SDS011;31040;51.622;10.420;2023-08-01T04:49:00;0.98;;;0.50;;
45296;SDS011;31040;51.622;10.420;2023-08-01T04:51:28;0.60;;;0.35;;
45296;SDS011;31040;51.622;10.420;2023-08-01T04:53:55;2.15;;;0.70;;
45296;SDS011;31040;51.622;10.420;2023-08-01T04:56:22;0.70;;;0.68;;
45296;SDS011;31040;51.622;10.420;2023-08-01T04:58:50;0.85;;;0.30;;
45296;SDS011;31040;51.622;10.420;2023-08-01T05:01:17;0.50;;;0.38;;
45296;SDS011;31040;51.622;10.420;2023-08-01T05:03:45;0.50;;;0.43;;
45296;SDS011;31040;51.622;10.420;2023-08-01T05:06:12;3.95;;;0.88;;
45296;SDS011;31040;51.622;10.420;2023-08-01T05:08:40;2.08;;;0.50;;
45296;SDS011;31040;51.622;10.420;2023-08-01T05:11:07;0.85;;;0.50;;
45296;SDS011;31040;51.622;10.420;2023-08-01T05:13:34;1.42;;;0.63;;
45296;SDS011;31040;51.622;10.420;2023-08-01T05:16:02;0.40;;;0.40;;
45296;SDS011;31040;51.622;10.420;2023-08-01T05:18:29;1.88;;;0.70;;
45296;SDS011;31040;51.622;10.420;2023-08-01T05:20:57;1.88;;;0.98;;
45296;SDS011;31040;51.622;10.420;2023-08-01T05:23:24;0.85;;;0.32;;
45296;SDS011;31040;51.622;10.420;2023-08-01T05:25:52;0.35;;;0.35;;
45296;SDS011;31040;51.622;10.420;2023-08-01T05:28:19;1.50;;;0.45;;
45296;SDS011;31040;51.622;10.420;2023-08-01T05:30:47;0.20;;;0.20;;
45296;SDS011;31040;51.622;10.420;2023-08-01T05:33:14;1.75;;;0.70;;
45296;SDS011;31040;51.622;10.420;2023-08-01T05:35:42;0.60;;;0.50;;
45296;SDS011;31040;51.622;10.420;2023-08-01T05:38:09;1.13;;;0.70;;
45296;SDS011;31040;51.622;10.420;2023-08-01T05:40:36;0.98;;;0.50;;
45296;SDS011;31040;51.622;10.420;2023-08-01T05:43:04;1.92;;;0.40;;
45296;SDS011;31040;51.622;10.420;2023-08-01T05:45:31;0.85;;;0.43;;
45296;SDS011;31040;51.622;10.420;2023-08-01T05:47:59;1.65;;;0.45;;
45296;SDS011;31040;51.622;10.420;2023-08-01T05:50:26;1.13;;;0.50;;
45296;SDS011;31040;51.622;10.420;2023-08-01T05:52:53;4.65;;;0.50;;
45296;SDS011;31040;51.622;10.420;2023-08-01T05:55:21;0.90;;;0.52;;
45296;SDS011;31040;51.622;10.420;2023-08-01T05:57:48;1.60;;;0.43;;
45296;SDS011;31040;51.622;10.420;2023-08-01T06:00:19;0.47;;;0.38;;
45296;SDS011;31040;51.622;10.420;2023-08-01T06:02:47;1.48;;;0.40;;
45296;SDS011;31040;51.622;10.420;2023-08-01T06:05:15;1.77;;;0.50;;
45296;SDS011;31040;51.622;10.420;2023-08-01T06:07:43;1.20;;;0.30;;
45296;SDS011;31040;51.622;10.420;2023-08-01T06:10:10;1.10;;;0.38;;
45296;SDS011;31040;51.622;10.420;2023-08-01T06:12:37;0.40;;;0.40;;
45296;SDS011;31040;51.622;10.420;2023-08-01T06:15:05;1.10;;;0.40;;
45296;SDS011;31040;51.622;10.420;2023-08-01T06:17:33;0.30;;;0.30;;
45296;SDS011;31040;51.622;10.420;2023-08-01T06:20:00;0.50;;;0.40;;
45296;SDS011;31040;51.622;10.420;2023-08-01T06:22:31;0.60;;;0.30;;
45296;SDS011;31040;51.622;10.420;2023-08-01T06:24:58;1.13;;;0.50;;
45296;SDS011;31040;51.622;10.420;2023-08-01T06:27:26;1.25;;;0.80;;
45296;SDS011;31040;51.622;10.420;2023-08-01T06:29:53;2.80;;;0.43;;
45296;SDS011;31040;51.622;10.420;2023-08-01T06:32:20;0.55;;;0.55;;
45296;SDS011;31040;51.622;10.420;2023-08-01T06:34:48;0.88;;;0.50;;
45296;SDS011;31040;51.622;10.420;2023-08-01T06:37:15;0.70;;;0.52;;
45296;SDS011;31040;51.622;10.420;2023-08-01T06:39:43;0.30;;;0.30;;
45296;SDS011;31040;51.622;10.420;2023-08-01T06:42:10;0.30;;;0.30;;
45296;SDS011;31040;51.622;10.420;2023-08-01T06:44:37;0.68;;;0.40;;
45296;SDS011;31040;51.622;10.420;2023-08-01T06:47:05;1.95;;;0.30;;
45296;SDS011;31040;51.622;10.420;2023-08-01T06:49:32;0.52;;;0.28;;
45296;SDS011;31040;51.622;10.420;2023-08-01T06:52:00;0.47;;;0.47;;
45296;SDS011;31040;51.622;10.420;2023-08-01T06:54:27;0.43;;;0.43;;
45296;SDS011;31040;51.622;10.420;2023-08-01T06:56:54;0.52;;;0.25;;
45296;SDS011;31040;51.622;10.420;2023-08-01T06:59:22;8.63;;;1.83;;
45296;SDS011;31040;51.622;10.420;2023-08-01T07:01:49;0.88;;;0.30;;
45296;SDS011;31040;51.622;10.420;2023-08-01T07:04:17;0.30;;;0.25;;
45296;SDS011;31040;51.622;10.420;2023-08-01T07:06:44;0.73;;;0.20;;
45296;SDS011;31040;51.622;10.420;2023-08-01T07:09:11;0.85;;;0.20;;
45296;SDS011;31040;51.622;10.420;2023-08-01T07:11:39;1.13;;;0.30;;
45296;SDS011;31040;51.622;10.420;2023-08-01T07:14:06;0.98;;;0.20;;
45296;SDS011;31040;51.622;10.420;2023-08-01T07:16:34;0.30;;;0.30;;
45296;SDS011;31040;51.622;10.420;2023-08-01T07:19:01;0.68;;;0.28;;
45296;SDS011;31040;51.622;10.420;2023-08-01T07:21:29;0.35;;;0.28;;
45296;SDS011;31040;51.622;10.420;2023-08-01T07:23:56;0.77;;;0.20;;
45296;SDS011;31040;51.622;10.420;2023-08-01T07:26:24;1.25;;;0.20;;
45296;SDS011;31040;51.622;10.420;2023-08-01T07:28:51;2.00;;;0.30;;
45296;SDS011;31040;51.622;10.420;2023-08-01T07:31:19;1.33;;;0.20;;
45296;SDS011;31040;51.622;10.420;2023-08-01T07:33:46;1.65;;;0.30;;
45296;SDS011;31040;51.622;10.420;2023-08-01T07:36:14;0.45;;;0.35;;
45296;SDS011;31040;51.622;10.420;2023-08-01T07:38:41;0.38;;;0.20;;
45296;SDS011;31040;51.622;10.420;2023-08-01T07:41:09;2.95;;;0.40;;
45296;SDS011;31040;51.622;10.420;2023-08-01T07:43:37;0.32;;;0.32;;
45296;SDS011;31040;51.622;10.420;2023-08-01T07:46:04;1.25;;;0.40;;
45296;SDS011;31040;51.622;10.420;2023-08-01T07:48:31;1.65;;;0.60;;
45296;SDS011;31040;51.622;10.420;2023-08-01T07:50:59;0.43;;;0.43;;
45296;SDS011;31040;51.622;10.420;2023-08-01T07:53:27;0.68;;;0.40;;
45296;SDS011;31040;51.622;10.420;2023-08-01T07:55:54;1.92;;;0.80;;
45296;SDS011;31040;51.622;10.420;2023-08-01T07:58:22;1.00;;;0.60;;
45296;SDS011;31040;51.622;10.420;2023-08-01T08:00:50;0.82;;;0.70;;
45296;SDS011;31040;51.622;10.420;2023-08-01T08:03:17;0.60;;;0.60;;
45296;SDS011;31040;51.622;10.420;2023-08-01T08:05:45;0.75;;;0.75;;
45296;SDS011;31040;51.622;10.420;2023-08-01T08:08:13;1.35;;;0.90;;
45296;SDS011;31040;51.622;10.420;2023-08-01T08:10:40;4.50;;;1.00;;
45296;SDS011;31040;51.622;10.420;2023-08-01T08:13:09;1.20;;;1.10;;
45296;SDS011;31040;51.622;10.420;2023-08-01T08:15:36;2.30;;;1.67;;
45296;SDS011;31040;51.622;10.420;2023-08-01T08:18:03;1.52;;;1.33;;
45296;SDS011;31040;51.622;10.420;2023-08-01T08:20:33;3.33;;;1.83;;
45296;SDS011;31040;51.622;10.420;2023-08-01T08:23:00;4.88;;;2.10;;
45296;SDS011;31040;51.622;10.420;2023-08-01T08:25:28;6.05;;;2.45;;
45296;SDS011;31040;51.622;10.420;2023-08-01T08:27:55;4.40;;;2.80;;
45296;SDS011;31040;51.622;10.420;2023-08-01T08:30:23;3.47;;;2.65;;
45296;SDS011;31040;51.622;10.420;2023-08-01T08:32:50;4.47;;;2.45;;
45296;SDS011;31040;51.622;10.420;2023-08-01T08:35:17;2.67;;;2.30;;
45296;SDS011;31040;51.622;10.420;2023-08-01T08:37:45;3.05;;;2.70;;
45296;SDS011;31040;51.622;10.420;2023-08-01T08:40:12;4.85;;;2.72;;
45296;SDS011;31040;51.622;10.420;2023-08-01T08:42:40;3.17;;;2.97;;
45296;SDS011;31040;51.622;10.420;2023-08-01T08:45:08;3.10;;;2.80;;
45296;SDS011;31040;51.622;10.420;2023-08-01T08:47:36;4.20;;;2.75;;
45296;SDS011;31040;51.622;10.420;2023-08-01T08:50:04;4.22;;;2.70;;
45296;SDS011;31040;51.622;10.420;2023-08-01T08:52:31;4.95;;;3.30;;
45296;SDS011;31040;51.622;10.420;2023-08-01T08:54:59;4.00;;;2.90;;
45296;SDS011;31040;51.622;10.420;2023-08-01T08:57:27;4.93;;;3.17;;
45296;SDS011;31040;51.622;10.420;2023-08-01T08:59:54;3.60;;;3.20;;
45296;SDS011;31040;51.622;10.420;2023-08-01T09:02:23;5.25;;;3.35;;
45296;SDS011;31040;51.622;10.420;2023-08-01T09:04:50;4.50;;;3.28;;
45296;SDS011;31040;51.622;10.420;2023-08-01T09:07:18;6.10;;;4.03;;
45296;SDS011;31040;51.622;10.420;2023-08-01T09:09:47;5.70;;;3.75;;
45296;SDS011;31040;51.622;10.420;2023-08-01T09:12:14;4.15;;;3.30;;
45296;SDS011;31040;51.622;10.420;2023-08-01T09:14:42;4.90;;;3.42;;
45296;SDS011;31040;51.622;10.420;2023-08-01T09:17:09;4.53;;;3.40;;
45296;SDS011;31040;51.622;10.420;2023-08-01T09:19:36;5.60;;;3.58;;
45296;SDS011;31040;51.622;10.420;2023-08-01T09:22:13;4.80;;;3.70;;
45296;SDS011;31040;51.622;10.420;2023-08-01T09:24:51;3.10;;;2.80;;
45296;SDS011;31040;51.622;10.420;2023-08-01T09:27:20;3.60;;;3.30;;
45296;SDS011;31040;51.622;10.420;2023-08-01T09:29:48;5.93;;;3.83;;
45296;SDS011;31040;51.622;10.420;2023-08-01T09:32:15;6.03;;;3.88;;
45296;SDS011;31040;51.622;10.420;2023-08-01T09:34:43;6.22;;;3.80;;
45296;SDS011;31040;51.622;10.420;2023-08-01T09:37:10;5.45;;;4.20;;
45296;SDS011;31040;51.622;10.420;2023-08-01T09:39:38;6.88;;;4.57;;
45296;SDS011;31040;51.622;10.420;2023-08-01T09:42:05;5.20;;;4.07;;
45296;SDS011;31040;51.622;10.420;2023-08-01T09:44:34;7.50;;;4.43;;
45296;SDS011;31040;51.622;10.420;2023-08-01T09:47:03;7.35;;;4.75;;
45296;SDS011;31040;51.622;10.420;2023-08-01T09:49:31;7.25;;;4.80;;
45296;SDS011;31040;51.622;10.420;2023-08-01T09:51:58;7.53;;;4.45;;
45296;SDS011;31040;51.622;10.420;2023-08-01T09:54:26;7.72;;;3.88;;
45296;SDS011;31040;51.622;10.420;2023-08-01T09:56:53;5.72;;;4.38;;
45296;SDS011;31040;51.622;10.420;2023-08-01T09:59:23;6.40;;;4.63;;
45296;SDS011;31040;51.622;10.420;2023-08-01T10:01:52;7.57;;;4.65;;
45296;SDS011;31040;51.622;10.420;2023-08-01T10:04:29;6.82;;;4.57;;
45296;SDS011;31040;51.622;10.420;2023-08-01T10:06:58;6.35;;;4.60;;
45296;SDS011;31040;51.622;10.420;2023-08-01T10:09:25;6.30;;;5.32;;
45296;SDS011;31040;51.622;10.420;2023-08-01T10:11:56;7.57;;;5.93;;
45296;SDS011;31040;51.622;10.420;2023-08-01T10:14:23;8.25;;;5.47;;
45296;SDS011;31040;51.622;10.420;2023-08-01T10:16:52;7.22;;;5.63;;
45296;SDS011;31040;51.622;10.420;2023-08-01T10:19:20;7.00;;;6.15;;
45296;SDS011;31040;51.622;10.420;2023-08-01T10:21:48;7.32;;;5.90;;
45296;SDS011;31040;51.622;10.420;2023-08-01T10:24:19;9.60;;;5.80;;
45296;SDS011;31040;51.622;10.420;2023-08-01T10:26:47;6.32;;;5.18;;
45296;SDS011;31040;51.622;10.420;2023-08-01T10:29:15;7.35;;;6.60;;
45296;SDS011;31040;51.622;10.420;2023-08-01T10:31:54;7.25;;;6.50;;
45296;SDS011;31040;51.622;10.420;2023-08-01T10:34:21;7.72;;;5.95;;
45296;SDS011;31040;51.622;10.420;2023-08-01T10:36:56;6.93;;;6.25;;
45296;SDS011;31040;51.622;10.420;2023-08-01T10:39:24;6.32;;;5.72;;
45296;SDS011;31040;51.622;10.420;2023-08-01T10:42:04;8.07;;;6.72;;
45296;SDS011;31040;51.622;10.420;2023-08-01T10:44:33;12.52;;;6.30;;
45296;SDS011;31040;51.622;10.420;2023-08-01T10:47:02;7.55;;;6.57;;
45296;SDS011;31040;51.622;10.420;2023-08-01T10:49:37;9.57;;;6.25;;
45296;SDS011;31040;51.622;10.420;2023-08-01T10:54:44;7.78;;;6.78;;
45296;SDS011;31040;51.622;10.420;2023-08-01T10:57:18;7.38;;;6.13;;
45296;SDS011;31040;51.622;10.420;2023-08-01T10:59:45;7.40;;;6.70;;
45296;SDS011;31040;51.622;10.420;2023-08-01T11:02:19;12.05;;;7.50;;
45296;SDS011;31040;51.622;10.420;2023-08-01T11:04:59;9.10;;;6.70;;
45296;SDS011;31040;51.622;10.420;2023-08-01T11:07:27;7.65;;;6.72;;
45296;SDS011;31040;51.622;10.420;2023-08-01T11:12:52;7.70;;;6.97;;
45296;SDS011;31040;51.622;10.420;2023-08-01T11:15:23;9.85;;;8.05;;
45296;SDS011;31040;51.622;10.420;2023-08-01T11:17:51;7.90;;;6.63;;
45296;SDS011;31040;51.622;10.420;2023-08-01T11:20:20;8.98;;;7.88;;
45296;SDS011;31040;51.622;10.420;2023-08-01T11:22:49;10.68;;;8.43;;
45296;SDS011;31040;51.622;10.420;2023-08-01T11:25:17;8.85;;;6.97;;
45296;SDS011;31040;51.622;10.420;2023-08-01T11:27:44;8.43;;;7.20;;
45296;SDS011;31040;51.622;10.420;2023-08-01T11:30:12;9.95;;;6.32;;
45296;SDS011;31040;51.622;10.420;2023-08-01T11:32:39;6.43;;;5.82;;
45296;SDS011;31040;51.622;10.420;2023-08-01T11:35:07;8.48;;;5.55;;
45296;SDS011;31040;51.622;10.420;2023-08-01T11:37:34;6.47;;;5.90;;
45296;SDS011;31040;51.622;10.420;2023-08-01T11:40:02;6.80;;;5.75;;
45296;SDS011;31040;51.622;10.420;2023-08-01T11:42:30;6.22;;;4.97;;
45296;SDS011;31040;51.622;10.420;2023-08-01T11:45:11;6.75;;;5.70;;
45296;SDS011;31040;51.622;10.420;2023-08-01T11:47:45;5.80;;;4.85;;
45296;SDS011;31040;51.622;10.420;2023-08-01T11:50:14;6.93;;;5.15;;
45296;SDS011;31040;51.622;10.420;2023-08-01T11:52:46;6.15;;;5.00;;
45296;SDS011;31040;51.622;10.420;2023-08-01T11:57:51;7.32;;;5.15;;
45296;SDS011;31040;51.622;10.420;2023-08-01T12:00:22;5.07;;;4.65;;
45296;SDS011;31040;51.622;10.420;2023-08-01T12:02:50;6.25;;;5.18;;
45296;SDS011;31040;51.622;10.420;2023-08-01T12:05:21;14.35;;;5.90;;
45296;SDS011;31040;51.622;10.420;2023-08-01T12:07:49;7.60;;;4.78;;
45296;SDS011;31040;51.622;10.420;2023-08-01T12:10:16;5.22;;;4.72;;
45296;SDS011;31040;51.622;10.420;2023-08-01T12:12:47;5.65;;;5.10;;
45296;SDS011;31040;51.622;10.420;2023-08-01T12:15:15;6.05;;;5.00;;
45296;SDS011;31040;51.622;10.420;2023-08-01T12:17:43;4.57;;;4.15;;
45296;SDS011;31040;51.622;10.420;2023-08-01T12:20:10;6.82;;;4.20;;
45296;SDS011;31040;51.622;10.420;2023-08-01T12:22:37;5.20;;;4.70;;
45296;SDS011;31040;51.622;10.420;2023-08-01T12:25:05;6.28;;;4.75;;
45296;SDS011;31040;51.622;10.420;2023-08-01T12:27:33;5.05;;;4.55;;
45296;SDS011;31040;51.622;10.420;2023-08-01T12:30:00;5.38;;;4.88;;
45296;SDS011;31040;51.622;10.420;2023-08-01T12:32:27;5.75;;;5.03;;
45296;SDS011;31040;51.622;10.420;2023-08-01T12:34:55;5.05;;;4.43;;
45296;SDS011;31040;51.622;10.420;2023-08-01T12:37:22;4.57;;;4.03;;
45296;SDS011;31040;51.622;10.420;2023-08-01T12:39:50;3.90;;;3.50;;
45296;SDS011;31040;51.622;10.420;2023-08-01T12:42:17;4.57;;;4.18;;
45296;SDS011;31040;51.622;10.420;2023-08-01T12:44:44;4.47;;;4.05;;
45296;SDS011;31040;51.622;10.420;2023-08-01T12:47:12;5.82;;;4.20;;
45296;SDS011;31040;51.622;10.420;2023-08-01T12:49:39;5.18;;;3.95;;
45296;SDS011;31040;51.622;10.420;2023-08-01T12:52:07;5.55;;;3.88;;
45296;SDS011;31040;51.622;10.420;2023-08-01T12:54:34;5.35;;;4.25;;
45296;SDS011;31040;51.622;10.420;2023-08-01T12:57:02;5.35;;;3.97;;
45296;SDS011;31040;51.622;10.420;2023-08-01T12:59:29;4.65;;;4.25;;
45296;SDS011;31040;51.622;10.420;2023-08-01T13:01:57;5.05;;;4.13;;
45296;SDS011;31040;51.622;10.420;2023-08-01T13:04:24;4.90;;;4.07;;
45296;SDS011;31040;51.622;10.420;2023-08-01T13:06:51;6.35;;;4.90;;
45296;SDS011;31040;51.622;10.420;2023-08-01T13:09:19;5.53;;;4.28;;
45296;SDS011;31040;51.622;10.420;2023-08-01T13:11:46;4.95;;;4.53;;
45296;SDS011;31040;51.622;10.420;2023-08-01T13:14:14;10.32;;;5.20;;
45296;SDS011;31040;51.622;10.420;2023-08-01T13:16:41;5.07;;;4.57;;
45296;SDS011;31040;51.622;10.420;2023-08-01T13:19:09;5.60;;;4.57;;
45296;SDS011;31040;51.622;10.420;2023-08-01T13:21:36;5.03;;;4.05;;
45296;SDS011;31040;51.622;10.420;2023-08-01T13:24:04;5.20;;;4.30;;
45296;SDS011;31040;51.622;10.420;2023-08-01T13:26:32;4.45;;;4.05;;
45296;SDS011;31040;51.622;10.420;2023-08-01T13:28:59;5.63;;;4.28;;
45296;SDS011;31040;51.622;10.420;2023-08-01T13:31:29;4.43;;;4.00;;
45296;SDS011;31040;51.622;10.420;2023-08-01T13:33:57;6.00;;;3.80;;
45296;SDS011;31040;51.622;10.420;2023-08-01T13:36:24;7.05;;;4.20;;
45296;SDS011;31040;51.622;10.420;2023-08-01T13:38:52;4.93;;;4.25;;
45296;SDS011;31040;51.622;10.420;2023-08-01T13:41:19;4.53;;;3.92;;
45296;SDS011;31040;51.622;10.420;2023-08-01T13:43:47;5.28;;;3.97;;
45296;SDS011;31040;51.622;10.420;2023-08-01T13:46:16;5.03;;;3.70;;
45296;SDS011;31040;51.622;10.420;2023-08-01T13:48:54;5.22;;;3.55;;
45296;SDS011;31040;51.622;10.420;2023-08-01T13:51:22;4.47;;;3.38;;
45296;SDS011;31040;51.622;10.420;2023-08-01T13:53:49;2.95;;;2.38;;
45296;SDS011;31040;51.622;10.420;2023-08-01T13:56:16;4.63;;;2.55;;
45296;SDS011;31040;51.622;10.420;2023-08-01T13:58:44;4.57;;;3.05;;
45296;SDS011;31040;51.622;10.420;2023-08-01T14:01:11;3.35;;;1.63;;
45296;SDS011;31040;51.622;10.420;2023-08-01T14:03:39;1.65;;;1.17;;
45296;SDS011;31040;51.622;10.420;2023-08-01T14:06:07;1.67;;;1.00;;
45296;SDS011;31040;51.622;10.420;2023-08-01T14:08:35;0.90;;;0.77;;
45296;SDS011;31040;51.622;10.420;2023-08-01T14:11:03;1.95;;;1.10;;
45296;SDS011;31040;51.622;10.420;2023-08-01T14:13:31;1.70;;;1.30;;
45296;SDS011;31040;51.622;10.420;2023-08-01T14:15:58;1.85;;;1.40;;
45296;SDS011;31040;51.622;10.420;2023-08-01T14:18:26;2.55;;;1.00;;
45296;SDS011;31040;51.622;10.420;2023-08-01T14:20:53;1.40;;;0.95;;
45296;SDS011;31040;51.622;10.420;2023-08-01T14:23:21;1.45;;;1.23;;
45296;SDS011;31040;51.622;10.420;2023-08-01T14:25:48;1.27;;;1.10;;
45296;SDS011;31040;51.622;10.420;2023-08-01T14:28:16;6.18;;;1.30;;
45296;SDS011;31040;51.622;10.420;2023-08-01T14:30:43;2.90;;;1.20;;
45296;SDS011;31040;51.622;10.420;2023-08-01T14:33:11;1.98;;;1.27;;
45296;SDS011;31040;51.622;10.420;2023-08-01T14:35:39;2.55;;;1.48;;
45296;SDS011;31040;51.622;10.420;2023-08-01T14:38:06;2.00;;;1.90;;
45296;SDS011;31040;51.622;10.420;2023-08-01T14:40:34;1.88;;;1.77;;
45296;SDS011;31040;51.622;10.420;2023-08-01T14:43:10;1.67;;;1.58;;
45296;SDS011;31040;51.622;10.420;2023-08-01T14:45:38;2.67;;;2.10;;